Time;durP1;ratioP1;P1;durP2;ratioP2;P2;SDS_P1;SDS_P2;PMS_P1;PMS_P2;Temp;Humidity;BMP_temperature;BMP_pressure;BME280_temperature;BME280_humidity;BME280_pressure;Samples;Min_cycle;Max_cycle;Signal;HPM_P1;HPM_P2
2021/12/15 00:00:44;;;;;;;22.75;18.35;;;;;;;7.39;45.88;102157.53;5092274;28;20409;-65
2021/12/15 00:03:15;;;;;;;21.30;17.83;;;;;;;7.27;46.16;102159.88;5092021;28;20957;-65
2021/12/15 00:05:45;;;;;;;25.35;20.15;;;;;;;7.15;46.48;102163.94;5091939;28;20424;-65
2021/12/15 00:08:12;;;;;;;24.10;18.53;;;;;;;7.01;46.75;102157.50;5092218;28;20470;-66
2021/12/15 00:10:39;;;;;;;24.67;18.60;;;;;;;6.93;46.97;102151.69;5091810;28;20409;-65
2021/12/15 00:13:10;;;;;;;20.83;16.42;;;;;;;6.62;47.46;102149.56;5091799;28;20786;-65
2021/12/15 00:15:37;;;;;;;21.87;17.87;;;;;;;6.36;48.22;102155.94;5091756;28;20944;-65
2021/12/15 00:18:06;;;;;;;24.73;19.67;;;;;;;6.39;48.16;102156.69;5073632;28;20409;-66
2021/12/15 00:20:34;;;;;;;23.63;19.27;;;;;;;6.30;48.35;102153.56;5091699;28;20495;-66
2021/12/15 00:23:01;;;;;;;22.65;18.23;;;;;;;6.14;48.66;102154.22;5091699;28;20954;-66
2021/12/15 00:25:30;;;;;;;22.93;17.87;;;;;;;6.24;48.45;102154.66;5091550;28;20863;-66
2021/12/15 00:27:59;;;;;;;25.75;19.73;;;;;;;6.14;48.85;102143.69;5091384;28;20954;-71
2021/12/15 00:30:29;;;;;;;24.52;18.73;;;;;;;6.09;48.83;102148.28;5091676;28;20402;-65
2021/12/15 00:32:56;;;;;;;24.27;19.02;;;;;;;6.07;49.36;102157.16;5091442;28;20409;-66
2021/12/15 00:35:24;;;;;;;23.35;18.23;;;;;;;6.04;49.26;102152.84;5091272;28;20401;-66
2021/12/15 00:37:52;;;;;;;23.85;18.10;;;;;;;6.00;49.43;102153.91;5091439;28;20894;-65
2021/12/15 00:40:22;;;;;;;23.50;18.27;;;;;;;6.15;49.26;102145.41;5091206;28;20409;-66
2021/12/15 00:42:51;;;;;;;24.40;19.52;;;;;;;6.17;49.10;102143.56;5069748;28;20481;-66
2021/12/15 00:45:18;;;;;;;27.58;20.40;;;;;;;6.26;49.05;102146.72;5070825;28;20498;-66
2021/12/15 00:47:47;;;;;;;25.15;20.13;;;;;;;6.15;49.14;102145.41;5069974;28;20521;-65
2021/12/15 00:50:18;;;;;;;42.58;35.72;;;;;;;6.01;49.36;102155.63;5071015;28;20528;-65
2021/12/15 00:52:46;;;;;;;44.65;34.60;;;;;;;6.02;49.74;102157.31;5071001;28;20438;-65
2021/12/15 00:55:18;;;;;;;33.92;24.65;;;;;;;6.03;49.15;102156.44;5052905;28;20465;-65
2021/12/15 00:57:46;;;;;;;31.00;22.40;;;;;;;6.04;49.16;102160.75;5070509;28;20490;-65
2021/12/15 01:00:19;;;;;;;29.85;21.58;;;;;;;5.95;49.41;102161.16;5070482;28;20502;-65
2021/12/15 01:02:47;;;;;;;35.10;24.33;;;;;;;5.94;49.42;102156.75;5070994;28;20473;-65
2021/12/15 01:05:17;;;;;;;35.58;25.50;;;;;;;6.04;49.27;102162.53;5070697;28;20465;-65
2021/12/15 01:07:45;;;;;;;26.63;20.33;;;;;;;6.01;49.19;102158.25;5070555;28;20423;-65
2021/12/15 01:10:17;;;;;;;22.92;17.52;;;;;;;6.17;49.00;102158.50;5070887;28;20411;-65
2021/12/15 01:14:27;;;;;;;24.50;19.37;;;;;;;6.28;48.80;102164.16;5070595;28;20403;-65
2021/12/15 01:21:07;;;;;;;27.70;22.17;;;;;;;6.58;48.20;102159.38;5069747;28;20402;-65
2021/12/15 01:23:34;;;;;;;28.83;21.55;;;;;;;6.63;47.99;102151.28;5069545;28;20407;-65
2021/12/15 01:26:05;;;;;;;34.22;23.80;;;;;;;6.69;47.79;102160.69;5069914;28;20855;-66
2021/12/15 01:28:33;;;;;;;21.23;16.23;;;;;;;6.76;47.71;102160.34;5070020;28;20464;-67
2021/12/15 01:31:00;;;;;;;19.83;15.43;;;;;;;6.77;47.77;102161.19;5069780;28;20468;-66
2021/12/15 01:33:30;;;;;;;36.55;27.67;;;;;;;6.75;47.96;102160.41;5069489;28;20410;-65
2021/12/15 01:35:59;;;;;;;23.88;19.60;;;;;;;6.86;47.60;102150.28;5069752;28;20482;-68
2021/12/15 01:38:31;;;;;;;24.58;19.67;;;;;;;6.94;47.54;102150.78;5069205;28;20409;-65
2021/12/15 01:40:59;;;;;;;24.75;19.48;;;;;;;7.00;47.41;102162.84;5069943;28;20483;-65
2021/12/15 01:43:37;;;;;;;18.45;14.40;;;;;;;6.84;47.64;102157.41;5061791;28;20773;-65
2021/12/15 01:48:58;;;;;;;20.42;16.35;;;;;;;6.87;47.35;102153.75;5069679;28;20406;-65
2021/12/15 01:51:25;;;;;;;19.83;15.43;;;;;;;6.96;47.27;102148.94;5069846;28;20438;-65
2021/12/15 01:53:53;;;;;;;19.17;14.98;;;;;;;7.08;46.97;102154.59;5052201;28;20398;-65
2021/12/15 01:56:20;;;;;;;18.05;14.63;;;;;;;7.09;46.91;102149.25;5069821;28;20461;-65
2021/12/15 01:58:47;;;;;;;18.13;14.25;;;;;;;7.02;46.85;102146.03;5069441;28;20859;-65
2021/12/15 02:01:14;;;;;;;16.23;13.70;;;;;;;7.02;46.66;102151.31;5069364;28;20407;-65
2021/12/15 02:03:42;;;;;;;19.33;15.05;;;;;;;6.96;46.84;102151.56;5069417;28;20502;-66
2021/12/15 02:06:13;;;;;;;19.20;14.70;;;;;;;7.07;46.57;102153.72;5069257;28;20406;-65
2021/12/15 02:08:41;;;;;;;18.85;14.95;;;;;;;7.19;46.18;102160.22;5051889;28;20403;-65
2021/12/15 02:11:09;;;;;;;22.33;17.90;;;;;;;7.17;46.22;102156.81;5069625;28;20407;-65
2021/12/15 02:13:37;;;;;;;18.08;14.75;;;;;;;7.18;45.95;102159.38;5069249;28;20465;-65
2021/12/15 02:16:06;;;;;;;19.02;15.10;;;;;;;7.17;46.10;102152.38;5069595;28;20505;-65
2021/12/15 02:18:35;;;;;;;16.45;14.15;;;;;;;7.06;46.15;102151.19;5059981;28;20413;-66
2021/12/15 02:21:06;;;;;;;19.23;15.38;;;;;;;6.95;46.51;102156.91;5089358;28;20448;-67
2021/12/15 02:23:39;;;;;;;29.38;19.88;;;;;;;7.03;46.52;102152.16;5089209;28;20401;-67
2021/12/15 02:26:09;;;;;;;21.27;16.05;;;;;;;6.92;46.64;102150.00;5089085;28;20408;-65
2021/12/15 02:28:38;;;;;;;23.30;18.00;;;;;;;6.97;46.70;102150.63;5071534;28;20431;-66
2021/12/15 02:31:13;;;;;;;25.42;19.20;;;;;;;6.97;46.69;102158.53;5089515;28;20405;-65
2021/12/15 02:39:16;;;;;;;21.55;16.33;;;;;;;6.92;46.53;102157.91;5089384;28;20404;-65
2021/12/15 02:41:45;;;;;;;20.92;16.30;;;;;;;6.90;46.66;102151.00;5085802;27;20414;-65
2021/12/15 02:44:15;;;;;;;18.23;14.55;;;;;;;6.86;46.83;102152.91;5089132;28;20416;-66
2021/12/15 02:46:44;;;;;;;23.83;17.98;;;;;;;6.99;46.70;102142.66;5089218;28;20425;-65
2021/12/15 02:49:14;;;;;;;22.43;17.07;;;;;;;7.06;46.49;102148.53;5089358;28;20487;-65
2021/12/15 02:51:44;;;;;;;19.60;15.60;;;;;;;7.13;46.33;102145.53;5089376;28;20455;-65
2021/12/15 02:54:13;;;;;;;18.58;14.90;;;;;;;7.15;46.55;102142.84;5089141;28;20446;-66
2021/12/15 02:56:41;;;;;;;19.37;15.87;;;;;;;7.22;46.52;102139.00;5091471;28;20521;-67
2021/12/15 02:59:10;;;;;;;22.87;17.37;;;;;;;7.35;46.14;102140.13;5093381;28;20397;-66
2021/12/15 03:01:53;;;;;;;22.75;17.45;;;;;;;7.32;46.36;102132.38;5092969;28;20409;-65
2021/12/15 03:04:36;;;;;;;16.93;13.90;;;;;;;7.42;46.20;102123.13;5092883;28;20409;-65
2021/12/15 03:07:10;;;;;;;67.57;45.53;;;;;;;7.37;46.19;102127.75;5092596;28;20793;-65
2021/12/15 03:15:29;;;;;;;19.70;16.63;;;;;;;7.47;46.08;102140.50;5017130;28;20466;-65
2021/12/15 03:17:58;;;;;;;47.42;37.00;;;;;;;7.51;46.07;102135.00;5092908;28;20404;-65
2021/12/15 03:20:27;;;;;;;25.15;19.52;;;;;;;7.43;46.13;102116.91;5092846;28;20401;-65
2021/12/15 03:22:55;;;;;;;24.83;19.80;;;;;;;7.50;45.85;102127.16;5092746;28;20933;-66
2021/12/15 03:25:24;;;;;;;33.50;24.27;;;;;;;7.32;46.35;102134.16;5092555;28;20433;-65
2021/12/15 03:33:39;;;;;;;32.55;23.55;;;;;;;7.50;45.73;102143.84;5050887;28;20405;-65
2021/12/15 03:36:13;;;;;;;32.78;24.52;;;;;;;7.40;45.90;102142.56;5092578;28;20420;-66
2021/12/15 03:38:43;;;;;;;32.40;25.63;;;;;;;7.49;45.99;102136.00;5092585;28;20492;-65
2021/12/15 03:41:12;;;;;;;20.33;17.50;;;;;;;7.53;45.88;102134.94;5092307;28;20405;-65
2021/12/15 03:43:41;;;;;;;42.42;31.73;;;;;;;7.58;45.83;102131.16;5087671;27;20405;-65
2021/12/15 03:46:14;;;;;;;18.17;15.82;;;;;;;7.35;46.20;102128.75;5092176;28;20444;-65
2021/12/15 03:48:44;;;;;;;19.55;16.63;;;;;;;7.31;46.31;102141.22;5092276;28;20425;-65
2021/12/15 03:51:13;;;;;;;20.17;15.98;;;;;;;7.32;46.43;102142.06;5092113;28;20405;-66
2021/12/15 03:53:43;;;;;;;27.23;22.13;;;;;;;7.38;46.29;102136.50;5091994;28;20401;-65
2021/12/15 03:56:13;;;;;;;20.70;16.67;;;;;;;7.46;46.04;102144.06;5091984;28;20979;-65
2021/12/15 03:58:41;;;;;;;35.08;31.08;;;;;;;7.55;45.91;102148.91;5091919;28;20408;-64
2021/12/15 04:01:11;;;;;;;25.17;19.63;;;;;;;7.50;45.95;102148.25;5092052;28;20458;-65
2021/12/15 04:03:41;;;;;;;24.40;18.50;;;;;;;7.52;46.14;102156.94;5092184;28;20409;-65
2021/12/15 04:06:11;;;;;;;22.45;17.17;;;;;;;7.54;45.98;102152.47;5091811;28;20433;-65
2021/12/15 04:08:40;;;;;;;29.17;22.08;;;;;;;7.46;45.94;102150.22;5090926;28;20420;-65
2021/12/15 04:11:10;;;;;;;18.23;15.43;;;;;;;7.41;46.44;102153.03;5074194;28;20416;-65
2021/12/15 04:13:38;;;;;;;23.42;20.33;;;;;;;7.39;46.42;102152.25;5092000;28;20409;-65
2021/12/15 04:16:08;;;;;;;27.08;24.13;;;;;;;7.50;46.19;102158.81;5091723;28;20463;-65
2021/12/15 04:18:37;;;;;;;17.63;14.75;;;;;;;7.49;46.40;102151.84;5091962;28;20413;-65
2021/12/15 04:21:05;;;;;;;20.75;17.60;;;;;;;7.41;46.48;102150.41;5091761;28;20455;-65
2021/12/15 04:23:33;;;;;;;17.77;14.75;;;;;;;7.37;46.74;102151.47;5091852;28;20397;-65
2021/12/15 04:26:01;;;;;;;16.58;13.95;;;;;;;7.52;46.53;102156.94;5092042;28;20503;-65
2021/12/15 04:28:33;;;;;;;18.00;15.25;;;;;;;7.62;46.29;102147.69;5090950;28;20452;-65
2021/12/15 04:31:05;;;;;;;17.65;15.70;;;;;;;7.47;46.48;102148.41;5091692;28;20401;-65
2021/12/15 04:33:36;;;;;;;17.40;15.30;;;;;;;7.49;46.71;102149.19;5091293;28;20500;-66
2021/12/15 04:36:06;;;;;;;18.13;16.25;;;;;;;7.55;46.65;102141.84;5091624;28;20440;-65
2021/12/15 04:38:33;;;;;;;18.15;15.77;;;;;;;7.53;46.68;102151.63;5091298;28;20920;-65
2021/12/15 04:41:05;;;;;;;18.13;15.53;;;;;;;7.41;47.04;102146.91;5091621;28;20478;-65
2021/12/15 04:43:35;;;;;;;14.98;11.93;;;;;;;7.31;47.17;102143.84;5072195;28;20470;-64
2021/12/15 04:46:04;;;;;;;19.70;17.80;;;;;;;7.47;47.00;102140.50;5069979;28;20407;-65
2021/12/15 04:48:32;;;;;;;18.25;16.30;;;;;;;7.60;46.93;102150.41;5070832;28;20850;-65
2021/12/15 04:50:59;;;;;;;16.77;14.27;;;;;;;7.62;46.93;102143.28;5070790;28;20493;-65
2021/12/15 04:53:26;;;;;;;17.33;14.70;;;;;;;7.49;46.88;102146.56;5070669;28;20529;-66
2021/12/15 04:55:53;;;;;;;15.43;13.18;;;;;;;7.29;47.31;102140.41;5070842;28;20441;-65
2021/12/15 04:58:21;;;;;;;17.20;14.60;;;;;;;7.38;47.13;102141.78;5070785;28;20498;-66
2021/12/15 05:00:54;;;;;;;26.40;23.67;;;;;;;7.46;46.85;102146.69;5070225;28;20499;-65
2021/12/15 05:03:21;;;;;;;21.05;16.85;;;;;;;7.53;46.69;102142.84;5070332;28;20403;-66
2021/12/15 05:05:49;;;;;;;20.83;17.33;;;;;;;7.54;46.73;102148.06;5070223;28;20410;-66
2021/12/15 05:08:16;;;;;;;21.50;17.88;;;;;;;7.47;46.61;102148.41;5070081;28;20480;-65
2021/12/15 05:10:44;;;;;;;22.90;19.00;;;;;;;7.33;46.96;102151.69;5069782;28;20954;-65
2021/12/15 05:13:12;;;;;;;22.65;20.30;;;;;;;7.37;46.85;102148.84;5070165;28;20964;-65
2021/12/15 05:15:39;;;;;;;21.10;18.60;;;;;;;7.55;46.73;102156.81;5070708;28;20415;-66
2021/12/15 05:18:09;;;;;;;19.20;16.25;;;;;;;7.57;46.59;102152.34;5070249;28;20502;-65
2021/12/15 05:20:39;;;;;;;24.13;20.55;;;;;;;7.68;46.89;102149.19;5069446;28;20942;-65
2021/12/15 05:23:06;;;;;;;22.70;19.50;;;;;;;7.69;46.50;102146.47;5070153;28;20411;-65
2021/12/15 05:25:34;;;;;;;24.88;22.02;;;;;;;7.71;46.54;102143.78;5070109;28;20438;-66
2021/12/15 05:28:01;;;;;;;19.33;16.27;;;;;;;7.63;46.47;102147.59;5069884;28;20458;-66
2021/12/15 05:30:29;;;;;;;20.13;16.80;;;;;;;7.50;46.73;102153.53;5069994;28;20414;-65
2021/12/15 05:32:56;;;;;;;20.67;17.70;;;;;;;7.53;46.69;102153.41;5070270;28;20482;-65
2021/12/15 05:35:25;;;;;;;21.88;18.40;;;;;;;7.52;46.74;102149.03;5070049;28;20464;-65
2021/12/15 05:37:56;;;;;;;24.60;18.93;;;;;;;7.45;46.82;102152.91;5070057;28;20492;-65
2021/12/15 05:40:26;;;;;;;26.15;20.73;;;;;;;7.43;46.90;102159.09;5069891;28;20399;-65
2021/12/15 05:42:56;;;;;;;21.73;18.90;;;;;;;7.50;46.83;102158.81;5079768;28;20443;-65
2021/12/15 05:45:23;;;;;;;23.48;20.67;;;;;;;7.49;46.78;102155.31;5089880;28;20413;-65
2021/12/15 05:47:50;;;;;;;18.98;16.70;;;;;;;7.54;46.81;102160.38;5089084;28;20432;-65
2021/12/15 05:50:18;;;;;;;21.60;18.23;;;;;;;7.46;47.04;102158.13;5089684;28;20469;-66
2021/12/15 05:52:46;;;;;;;22.10;19.30;;;;;;;7.52;46.85;102156.94;5089519;28;20455;-65
2021/12/15 05:55:15;;;;;;;25.63;20.40;;;;;;;7.41;46.99;102157.47;5089601;28;20412;-66
2021/12/15 05:57:43;;;;;;;23.55;18.02;;;;;;;7.60;46.80;102158.31;5089938;28;20429;-66
2021/12/15 06:00:13;;;;;;;25.00;21.63;;;;;;;7.61;46.95;102162.66;5089439;28;20410;-66
2021/12/15 06:02:41;;;;;;;23.60;18.55;;;;;;;7.70;46.54;102158.72;5089745;28;20401;-67
2021/12/15 06:05:10;;;;;;;30.92;25.83;;;;;;;7.68;46.69;102162.34;5089542;28;20405;-67
2021/12/15 06:07:38;;;;;;;29.05;24.85;;;;;;;7.55;47.00;102162.09;5089442;28;20952;-65
2021/12/15 06:10:14;;;;;;;30.17;23.52;;;;;;;7.62;46.76;102163.50;5089560;28;20458;-67
2021/12/15 06:12:42;;;;;;;37.07;30.20;;;;;;;7.77;46.63;102157.50;5089699;28;20527;-67
2021/12/15 06:15:10;;;;;;;24.67;21.75;;;;;;;7.78;46.40;102158.34;5089333;28;20413;-66
2021/12/15 06:17:37;;;;;;;33.45;27.05;;;;;;;7.82;46.26;102163.41;5089492;28;20405;-68
2021/12/15 06:20:06;;;;;;;24.63;19.92;;;;;;;7.82;46.37;102166.03;5089308;28;20447;-66
2021/12/15 06:22:36;;;;;;;32.20;25.55;;;;;;;7.74;46.33;102162.06;5089476;28;20481;-65
2021/12/15 06:25:04;;;;;;;41.03;33.55;;;;;;;7.74;46.46;102165.56;5089647;28;20841;-65
2021/12/15 06:27:35;;;;;;;42.53;36.35;;;;;;;7.79;46.54;102168.84;5088932;28;20459;-64
2021/12/15 06:30:03;;;;;;;43.63;35.25;;;;;;;7.86;46.46;102176.47;5089092;28;20459;-66
2021/12/15 06:32:32;;;;;;;50.22;42.00;;;;;;;7.83;46.26;102177.47;5089245;28;20436;-65
2021/12/15 06:34:59;;;;;;;54.72;48.78;;;;;;;8.00;45.96;102181.94;5089033;28;20405;-65
2021/12/15 06:37:26;;;;;;;25.17;21.35;;;;;;;8.01;46.05;102181.00;5089009;28;20485;-67
2021/12/15 06:39:54;;;;;;;20.77;17.83;;;;;;;8.00;46.07;102190.69;5089198;28;20409;-65
2021/12/15 06:42:21;;;;;;;31.37;27.27;;;;;;;8.11;46.00;102191.94;5089707;28;20475;-66
2021/12/15 06:44:49;;;;;;;25.38;21.45;;;;;;;8.18;45.96;102196.00;5089203;28;20455;-65
2021/12/15 06:47:35;;;;;;;53.63;48.38;;;;;;;8.24;45.67;102190.44;5089448;28;20405;-65
2021/12/15 06:58:17;;;;;;;22.23;17.97;;;;;;;8.40;45.15;102206.38;5089322;28;20474;-66
2021/12/15 07:00:48;;;;;;;31.83;24.10;;;;;;;8.40;45.28;102209.88;5088953;28;20902;-65
2021/12/15 07:03:16;;;;;;;27.85;23.05;;;;;;;8.54;45.14;102205.72;5089200;28;20476;-66
2021/12/15 07:05:44;;;;;;;23.83;20.25;;;;;;;8.63;44.58;102215.81;5088884;28;20431;-66
2021/12/15 07:08:11;;;;;;;27.08;21.73;;;;;;;8.60;44.92;102214.19;5089241;28;20475;-66
2021/12/15 07:10:42;;;;;;;26.10;20.20;;;;;;;8.73;44.40;102214.41;5089693;28;20429;-67
2021/12/15 07:13:09;;;;;;;24.60;20.05;;;;;;;8.76;44.39;102224.84;5088879;28;20488;-65
2021/12/15 07:15:37;;;;;;;26.42;20.33;;;;;;;8.82;44.35;102228.97;5088706;28;20898;-65
2021/12/15 07:18:10;;;;;;;22.38;18.67;;;;;;;8.89;43.91;102234.78;5089191;28;20417;-66
2021/12/15 07:20:42;;;;;;;26.08;20.90;;;;;;;8.88;43.84;102233.91;5089176;28;20405;-66
2021/12/15 07:23:11;;;;;;;31.75;25.33;;;;;;;9.00;43.77;102241.22;5089035;28;20484;-65
2021/12/15 07:25:40;;;;;;;37.50;27.38;;;;;;;9.01;43.82;102242.06;5088992;28;20401;-65
2021/12/15 07:28:07;;;;;;;32.80;25.85;;;;;;;9.09;43.46;102245.16;5088194;28;20475;-66
2021/12/15 07:30:35;;;;;;;32.20;26.15;;;;;;;9.13;43.59;102246.72;5088084;28;20409;-66
2021/12/15 07:33:03;;;;;;;30.30;25.30;;;;;;;9.15;43.60;102254.56;5088482;28;20413;-65
2021/12/15 07:35:31;;;;;;;28.38;20.20;;;;;;;9.27;43.13;102250.44;5088957;28;20462;-65
2021/12/15 07:37:59;;;;;;;28.02;22.55;;;;;;;9.31;43.33;102250.19;5088722;28;20435;-65
2021/12/15 07:40:27;;;;;;;27.83;23.02;;;;;;;9.26;43.51;102251.34;5088576;28;20401;-66
2021/12/15 07:43:06;;;;;;;77.72;65.03;;;;;;;9.40;43.32;102254.13;5089176;28;20982;-66
2021/12/15 07:45:36;;;;;;;54.90;43.72;;;;;;;9.34;43.30;102257.09;5092194;28;20480;-66
2021/12/15 07:48:05;;;;;;;39.85;29.30;;;;;;;9.33;43.18;102258.88;5091911;28;20790;-66
2021/12/15 07:50:35;;;;;;;41.90;30.67;;;;;;;9.41;43.11;102261.13;5092189;28;20409;-66
2021/12/15 07:53:02;;;;;;;69.72;49.65;;;;;;;9.35;43.53;102261.47;5091818;28;20458;-66
2021/12/15 07:55:29;;;;;;;49.08;37.45;;;;;;;9.42;43.04;102265.47;5091956;28;20398;-65
2021/12/15 07:57:58;;;;;;;33.15;26.50;;;;;;;9.46;43.16;102268.81;5091737;28;20966;-65
2021/12/15 08:00:26;;;;;;;42.40;34.42;;;;;;;9.50;42.94;102273.00;5091729;28;20470;-66
2021/12/15 08:02:54;;;;;;;32.30;27.15;;;;;;;9.49;43.04;102273.94;5091706;28;20892;-65
2021/12/15 08:05:22;;;;;;;31.88;26.40;;;;;;;9.48;42.98;102269.59;5091880;28;20478;-64
2021/12/15 08:07:50;;;;;;;33.25;27.17;;;;;;;9.43;43.02;102273.34;5091913;28;20409;-67
2021/12/15 08:10:19;;;;;;;29.38;23.23;;;;;;;9.38;43.04;102271.88;5091766;28;20488;-66
2021/12/15 08:12:47;;;;;;;29.20;23.40;;;;;;;9.43;43.27;102269.84;5091041;28;20401;-65
2021/12/15 08:15:16;;;;;;;44.47;33.40;;;;;;;9.56;43.03;102277.97;5091731;28;20409;-66
2021/12/15 08:17:46;;;;;;;35.30;27.92;;;;;;;9.55;43.21;102274.47;5091532;28;20405;-65
2021/12/15 08:20:13;;;;;;;33.72;25.55;;;;;;;9.66;42.87;102275.69;5091384;28;20805;-65
2021/12/15 08:22:40;;;;;;;29.58;24.20;;;;;;;9.63;42.85;102271.44;5091431;28;20454;-66
2021/12/15 08:25:11;;;;;;;29.15;23.52;;;;;;;9.78;42.53;102277.66;5091702;28;20427;-67
2021/12/15 08:27:39;;;;;;;32.90;24.70;;;;;;;9.90;42.36;102279.63;5091163;28;20397;-66
2021/12/15 08:30:09;;;;;;;47.45;34.78;;;;;;;9.86;42.40;102282.53;5091242;28;20478;-65
2021/12/15 08:32:36;;;;;;;54.60;37.33;;;;;;;9.95;42.50;102276.72;5091181;28;20401;-66
2021/12/15 08:35:04;;;;;;;44.58;33.08;;;;;;;9.94;42.28;102275.03;5090666;28;20460;-66
2021/12/15 08:37:31;;;;;;;46.15;36.58;;;;;;;9.99;42.36;102283.56;5091102;28;20474;-66
2021/12/15 08:39:58;;;;;;;54.63;37.50;;;;;;;10.05;42.07;102279.72;5091126;28;20488;-66
2021/12/15 08:42:28;;;;;;;47.22;29.63;;;;;;;10.01;42.16;102287.81;5090875;28;20488;-65
2021/12/15 08:44:56;;;;;;;39.42;24.92;;;;;;;10.18;41.57;102286.91;5072454;28;20492;-65
2021/12/15 08:47:23;;;;;;;37.70;26.20;;;;;;;10.28;41.29;102274.00;5072937;28;20492;-66
2021/12/15 08:49:50;;;;;;;34.35;25.17;;;;;;;10.26;41.09;102281.19;5090544;28;20788;-65
2021/12/15 08:52:17;;;;;;;31.30;19.55;;;;;;;10.19;41.08;102283.31;5091032;28;20511;-66
2021/12/15 08:54:44;;;;;;;25.88;19.48;;;;;;;10.34;41.07;102279.00;5090468;28;20409;-64
2021/12/15 08:57:11;;;;;;;32.22;22.05;;;;;;;10.39;40.66;102286.66;5091158;28;20487;-67
2021/12/15 08:59:39;;;;;;;34.83;24.98;;;;;;;10.33;41.30;102274.63;5090964;28;20417;-66
2021/12/15 09:02:07;;;;;;;33.60;24.83;;;;;;;10.57;40.68;102284.75;5090110;28;20480;-66
2021/12/15 09:04:34;;;;;;;30.83;23.17;;;;;;;10.73;40.58;102268.81;5090846;28;20401;-66
2021/12/15 09:07:01;;;;;;;26.70;20.58;;;;;;;10.86;40.52;102264.50;5090511;28;20488;-67
2021/12/15 09:09:28;;;;;;;27.90;20.38;;;;;;;10.82;40.25;102262.97;5090574;28;20512;-65
2021/12/15 09:11:56;;;;;;;24.85;18.17;;;;;;;10.80;40.01;102264.84;5089819;28;20405;-66
2021/12/15 09:14:23;;;;;;;29.08;21.77;;;;;;;11.16;39.58;102261.78;5090350;28;20496;-66
2021/12/15 09:16:54;;;;;;;26.95;20.95;;;;;;;11.45;39.18;102253.84;5090393;28;20488;-66
2021/12/15 09:19:22;;;;;;;33.33;24.83;;;;;;;11.57;38.87;102261.03;5090453;28;20409;-66
2021/12/15 09:21:52;;;;;;;31.47;22.93;;;;;;;11.71;38.58;102262.00;5090433;28;20489;-65
2021/12/15 09:24:20;;;;;;;29.57;23.20;;;;;;;12.01;37.94;102259.22;5090492;28;20466;-65
2021/12/15 09:26:48;;;;;;;33.55;24.77;;;;;;;12.26;37.85;102258.47;5089809;28;20499;-66
2021/12/15 09:29:16;;;;;;;38.25;26.83;;;;;;;12.39;37.40;102247.91;5090280;28;20421;-65
2021/12/15 09:31:43;;;;;;;31.23;22.48;;;;;;;12.53;37.05;102255.81;5090037;28;20916;-66
2021/12/15 09:34:17;;;;;;;29.52;21.85;;;;;;;12.73;37.04;102253.59;5072452;28;20450;-67
2021/12/15 09:36:45;;;;;;;29.50;22.95;;;;;;;12.90;36.68;102248.00;5090333;28;20401;-67
2021/12/15 09:39:15;;;;;;;34.17;26.02;;;;;;;13.20;35.79;102241.53;5089834;28;20409;-64
2021/12/15 09:41:43;;;;;;;29.98;24.15;;;;;;;13.42;35.66;102243.56;5090177;28;20497;-66
2021/12/15 09:44:14;;;;;;;24.63;20.77;;;;;;;13.52;34.94;102243.75;5089770;28;20473;-66
2021/12/15 09:47:08;;;;;;;24.20;20.38;;;;;;;13.60;34.78;102238.75;5090113;28;20462;-65
2021/12/15 10:03:47;;;;;;;24.75;20.35;;;;;;;14.91;32.91;102224.59;5032421;28;20414;-64
2021/12/15 10:06:31;;;;;;;244.40;161.68;;;;;;;15.19;32.32;102217.13;5088633;28;20405;-64
2021/12/15 10:12:07;;;;;;;26.75;20.85;;;;;;;15.60;31.84;102212.97;5089583;28;20511;-64
2021/12/15 10:20:05;;;;;;;17.73;15.93;;;;;;;17.05;29.31;102217.03;5088763;28;20779;-65
2021/12/15 10:22:39;;;;;;;21.27;16.77;;;;;;;17.45;28.51;102210.88;5089298;28;20447;-65
2021/12/15 10:25:11;;;;;;;21.35;18.48;;;;;;;18.73;26.86;102206.34;5089308;28;20418;-66
2021/12/15 10:27:45;;;;;;;19.95;16.67;;;;;;;19.25;26.31;102210.47;5089556;28;20786;-66
2021/12/15 10:30:25;;;;;;;49.95;39.90;;;;;;;19.61;25.33;102214.13;5089211;28;20416;-66
2021/12/15 10:32:56;;;;;;;17.63;15.25;;;;;;;20.30;24.41;102219.91;5072729;28;20905;-66
2021/12/15 10:35:26;;;;;;;44.97;40.40;;;;;;;20.66;23.93;102214.47;5088530;28;20499;-66
2021/12/15 10:38:21;;;;;;;31.77;28.38;;;;;;;21.12;23.13;102220.50;5089171;28;20842;-66
2021/12/15 10:40:58;;;;;;;40.72;33.10;;;;;;;21.83;23.00;102216.59;5088966;28;20408;-68
2021/12/15 10:43:31;;;;;;;36.63;32.25;;;;;;;22.08;22.37;102212.13;5089394;28;20401;-67
2021/12/15 10:46:01;;;;;;;25.25;22.63;;;;;;;22.18;21.88;102212.81;5089234;28;20420;-67
2021/12/15 10:48:37;;;;;;;68.83;55.47;;;;;;;22.47;21.71;102202.56;5089338;28;20405;-67
2021/12/15 10:51:19;;;;;;;50.28;42.97;;;;;;;22.57;21.32;102201.34;5089049;28;20401;-67
2021/12/15 10:53:48;;;;;;;36.55;32.65;;;;;;;22.65;21.25;102200.50;5088867;28;20405;-66
2021/12/15 10:56:17;;;;;;;20.35;18.13;;;;;;;22.26;21.29;102203.88;5089176;28;20454;-66
2021/12/15 10:58:49;;;;;;;31.13;27.83;;;;;;;22.32;21.70;102205.06;5088809;28;20488;-66
2021/12/15 11:01:36;;;;;;;26.75;24.15;;;;;;;21.84;21.91;102204.81;5088837;28;20394;-66
2021/12/15 11:04:13;;;;;;;31.92;28.73;;;;;;;21.98;21.69;102208.72;5089257;28;20584;-66
2021/12/15 11:06:40;;;;;;;31.30;28.15;;;;;;;22.04;21.53;102199.97;5088698;28;20405;-66
2021/12/15 11:09:15;;;;;;;155.13;137.25;;;;;;;22.24;21.69;102195.09;5088918;28;20945;-66
2021/12/15 11:11:57;;;;;;;64.63;57.90;;;;;;;21.54;21.74;102198.16;5089076;28;20497;-66
2021/12/15 11:14:27;;;;;;;22.25;20.10;;;;;;;21.32;22.23;102194.16;5089063;28;21033;-65
2021/12/15 11:17:20;;;;;;;18.35;16.50;;;;;;;21.13;22.59;102189.88;5071140;28;20407;-65
2021/12/15 11:19:52;;;;;;;30.05;27.05;;;;;;;21.35;22.34;102189.31;5062446;28;20434;-67
2021/12/15 11:22:44;;;;;;;32.00;28.90;;;;;;;20.77;22.98;102176.53;5072366;28;20498;-67
2021/12/15 11:25:19;;;;;;;16.13;13.70;;;;;;;20.53;23.40;102178.00;5072275;28;20409;-67
2021/12/15 11:27:49;;;;;;;27.23;24.27;;;;;;;20.05;23.41;102162.31;5071996;28;20549;-65
2021/12/15 11:30:22;;;;;;;26.77;23.97;;;;;;;19.86;23.84;102168.69;5072103;28;20402;-65
2021/12/15 11:32:51;;;;;;;91.97;80.93;;;;;;;19.56;24.67;102162.63;5072374;28;20411;-65
2021/12/15 11:35:22;;;;;;;54.25;42.75;;;;;;;18.89;25.30;102167.34;5072431;28;20472;-64
2021/12/15 11:37:56;;;;;;;73.20;57.72;;;;;;;18.48;25.98;102162.19;5071925;28;20411;-64
2021/12/15 11:40:31;;;;;;;31.77;26.55;;;;;;;17.95;26.72;102160.78;5071714;28;20517;-64
2021/12/15 11:42:59;;;;;;;43.95;32.72;;;;;;;17.82;27.16;102154.81;5071574;28;20398;-65
2021/12/15 11:45:27;;;;;;;25.83;21.23;;;;;;;17.27;27.66;102141.03;5071953;28;20449;-65
2021/12/15 11:48:13;;;;;;;89.05;69.10;;;;;;;16.81;28.34;102133.38;5071638;28;20963;-65
2021/12/15 11:50:42;;;;;;;30.92;24.98;;;;;;;16.34;29.21;102127.59;5071682;28;20839;-64
2021/12/15 11:53:21;;;;;;;25.90;19.17;;;;;;;16.15;29.80;102120.25;5071972;28;20407;-64
2021/12/15 11:55:50;;;;;;;70.90;55.45;;;;;;;15.63;30.21;102113.88;5071367;28;20417;-64
2021/12/15 11:58:30;;;;;;;55.85;41.25;;;;;;;14.99;31.40;102102.09;5071961;28;20572;-67
2021/12/15 12:00:58;;;;;;;38.38;27.00;;;;;;;15.01;31.52;102102.81;5071389;28;20812;-65
2021/12/15 12:03:25;;;;;;;126.40;76.50;;;;;;;14.91;31.72;102109.88;5071561;28;20411;-64
2021/12/15 12:05:52;;;;;;;85.28;52.33;;;;;;;14.56;31.92;102112.66;5071482;28;20880;-64
2021/12/15 12:08:19;;;;;;;45.63;25.38;;;;;;;14.48;31.95;102123.03;5071452;28;20465;-65
2021/12/15 12:10:50;;;;;;;25.10;16.23;;;;;;;14.73;31.89;102122.00;5071344;28;20520;-64
2021/12/15 12:13:23;;;;;;;21.80;16.40;;;;;;;14.90;31.16;102121.53;5071107;28;20485;-65
2021/12/15 12:15:53;;;;;;;25.45;18.15;;;;;;;15.08;31.10;102118.34;5071742;28;20411;-65
2021/12/15 12:18:23;;;;;;;21.88;14.07;;;;;;;15.43;30.69;102126.22;5077802;28;20498;-65
2021/12/15 12:20:53;;;;;;;29.13;19.98;;;;;;;15.43;30.90;102113.69;5091430;28;20541;-65
2021/12/15 12:23:21;;;;;;;38.50;25.05;;;;;;;15.60;30.74;102114.97;5091439;28;20401;-65